Time;durP1;ratioP1;P1;durP2;ratioP2;P2;SDS_P1;SDS_P2;PMS_P1;PMS_P2;Temp;Humidity;BMP_temperature;BMP_pressure;BME280_temperature;BME280_humidity;BME280_pressure;Samples;Min_cycle;Max_cycle;Signal;HPM_P1;HPM_P2
2021/12/16 00:09:25;;;;;;;21.02;11.65;;;6.00;97.70;;;;;;5022444;28;20179;-67
2021/12/16 00:33:33;;;;;;;24.98;11.43;;;6.10;97.50;;;;;;5022349;28;20081;-66
2021/12/16 00:35:59;;;;;;;20.85;10.90;;;6.00;97.60;;;;;;5021969;28;20451;-66
2021/12/16 00:38:25;;;;;;;23.77;11.10;;;6.10;97.70;;;;;;5022248;28;20433;-67
2021/12/16 00:40:51;;;;;;;19.42;10.65;;;6.10;97.60;;;;;;5022005;28;20030;-67
2021/12/16 00:45:58;;;;;;;23.60;11.40;;;6.10;97.60;;;;;;5022351;28;20014;-67
2021/12/16 00:48:37;;;;;;;21.17;10.15;;;6.10;97.60;;;;;;5022153;28;20018;-66
2021/12/16 00:54:09;;;;;;;20.58;10.80;;;6.10;97.50;;;;;;5021858;28;20037;-67
2021/12/16 00:56:37;;;;;;;20.92;10.25;;;6.10;97.60;;;;;;5020506;28;20022;-67
2021/12/16 00:59:04;;;;;;;20.75;11.13;;;6.10;97.50;;;;;;5020944;28;20056;-67
2021/12/16 01:34:31;;;;;;;19.30;10.07;;;6.00;97.60;;;;;;5021465;28;20045;-67
2021/12/16 01:47:48;;;;;;;20.65;12.07;;;5.90;97.90;;;;;;4982556;28;20265;-67
2021/12/16 01:50:24;;;;;;;19.92;11.02;;;5.90;98.10;;;;;;4982615;28;20282;-66
2021/12/16 01:55:35;;;;;;;23.45;12.65;;;6.00;97.90;;;;;;4982192;28;20102;-66
2021/12/16 01:58:12;;;;;;;24.83;13.27;;;5.90;97.80;;;;;;4982127;28;20041;-66
2021/12/16 02:01:16;;;;;;;23.98;12.15;;;5.90;97.80;;;;;;4985746;28;20290;-66
2021/12/16 02:03:55;;;;;;;27.38;13.43;;;5.90;98.00;;;;;;4984444;28;20039;-66
2021/12/16 02:09:28;;;;;;;23.90;11.95;;;5.80;98.20;;;;;;4986105;28;20031;-66
2021/12/16 02:12:07;;;;;;;23.17;12.57;;;5.90;98.20;;;;;;4984591;28;20037;-66
2021/12/16 02:31:52;;;;;;;29.25;14.15;;;5.80;98.30;;;;;;5022878;28;20033;-66
2021/12/16 02:34:32;;;;;;;24.50;13.02;;;5.80;98.40;;;;;;5024569;28;20041;-66
2021/12/16 02:36:58;;;;;;;25.17;13.27;;;5.80;98.30;;;;;;5024852;28;20034;-66
2021/12/16 02:39:26;;;;;;;23.83;13.30;;;5.70;98.60;;;;;;5024820;28;20033;-66
2021/12/16 02:42:05;;;;;;;25.35;13.80;;;5.70;98.50;;;;;;5024337;28;20025;-66
2021/12/16 02:49:49;;;;;;;28.15;13.88;;;5.70;98.50;;;;;;5024613;28;20048;-66
2021/12/16 02:52:17;;;;;;;28.93;14.07;;;5.70;98.50;;;;;;5024498;28;20022;-66
2021/12/16 02:54:44;;;;;;;28.55;14.80;;;5.70;98.60;;;;;;5024147;28;20358;-66
2021/12/16 02:57:10;;;;;;;28.70;14.45;;;5.70;98.50;;;;;;5024386;28;20048;-66
2021/12/16 02:59:36;;;;;;;30.13;14.57;;;5.70;98.70;;;;;;5024844;28;20026;-66
2021/12/16 03:02:08;;;;;;;27.63;14.35;;;5.70;98.60;;;;;;5023866;28;20196;-66
2021/12/16 03:04:35;;;;;;;27.35;13.93;;;5.60;98.70;;;;;;5025008;28;20026;-67
2021/12/16 03:07:01;;;;;;;32.55;15.38;;;5.60;98.90;;;;;;5024982;28;20087;-67
2021/12/16 03:10:02;;;;;;;28.80;13.88;;;5.60;99.10;;;;;;5024886;28;20353;-67
2021/12/16 03:12:47;;;;;;;29.73;15.25;;;5.60;99.10;;;;;;5024399;28;20331;-67
2021/12/16 03:20:36;;;;;;;28.35;15.43;;;5.80;98.50;;;;;;5009082;28;20038;-67
2021/12/16 03:24:02;;;;;;;27.70;14.48;;;5.80;98.50;;;;;;5004366;28;20022;-66
2021/12/16 03:38:26;;;;;;;30.80;14.48;;;5.80;98.50;;;;;;5022667;28;20037;-66
2021/12/16 03:40:52;;;;;;;30.93;15.10;;;5.70;98.90;;;;;;5023500;28;20022;-67
2021/12/16 03:43:19;;;;;;;28.42;15.07;;;5.70;99.10;;;;;;5022321;28;20018;-66
2021/12/16 03:48:54;;;;;;;25.23;12.80;;;5.80;98.70;;;;;;5022970;28;19973;-67
2021/12/16 03:51:37;;;;;;;30.45;14.75;;;5.80;98.60;;;;;;5002485;28;20057;-67
2021/12/16 03:54:20;;;;;;;30.20;15.10;;;5.70;98.80;;;;;;5022942;28;20030;-68
2021/12/16 03:56:46;;;;;;;28.05;14.43;;;5.70;99.00;;;;;;5022049;28;20056;-67
2021/12/16 03:59:15;;;;;;;29.03;15.40;;;5.70;99.00;;;;;;5023164;28;20036;-67
2021/12/16 04:01:41;;;;;;;29.27;15.23;;;5.80;98.90;;;;;;5022972;28;20030;-67
2021/12/16 04:04:07;;;;;;;30.47;15.07;;;5.90;98.50;;;;;;5021582;28;20033;-66
2021/12/16 04:06:35;;;;;;;27.05;13.93;;;5.90;98.50;;;;;;5021540;28;20037;-66
2021/12/16 04:09:02;;;;;;;28.08;14.68;;;5.80;98.50;;;;;;5022722;28;20026;-66
2021/12/16 04:11:38;;;;;;;31.10;15.52;;;5.90;98.50;;;;;;5022808;28;20159;-66
2021/12/16 04:14:04;;;;;;;29.55;15.05;;;5.90;98.30;;;;;;5022232;28;20085;-66
2021/12/16 04:16:39;;;;;;;33.97;16.50;;;5.90;98.10;;;;;;5022424;28;20036;-67
2021/12/16 04:19:09;;;;;;;27.33;13.68;;;5.90;98.10;;;;;;5021647;28;20401;-67
2021/12/16 04:21:41;;;;;;;31.83;15.50;;;6.00;98.10;;;;;;5021982;28;20076;-67
2021/12/16 04:24:07;;;;;;;26.85;13.75;;;5.90;98.10;;;;;;5022451;28;20376;-67
2021/12/16 04:26:33;;;;;;;32.00;15.98;;;6.00;98.10;;;;;;5022325;28;20320;-67
2021/12/16 04:28:59;;;;;;;30.02;16.42;;;6.00;98.00;;;;;;5022504;28;20033;-67
2021/12/16 04:31:25;;;;;;;28.10;15.10;;;5.90;97.90;;;;;;5022391;28;20076;-67
2021/12/16 04:33:51;;;;;;;30.88;15.15;;;5.90;98.20;;;;;;5022340;28;20029;-67
2021/12/16 04:36:17;;;;;;;29.98;14.95;;;5.90;98.30;;;;;;5021811;28;20045;-68
2021/12/16 04:38:44;;;;;;;32.60;15.90;;;5.90;98.30;;;;;;5022195;28;20096;-68
2021/12/16 04:41:11;;;;;;;31.13;16.27;;;5.90;98.30;;;;;;5022292;28;20067;-68
2021/12/16 04:43:40;;;;;;;30.02;15.35;;;5.90;98.40;;;;;;5022039;28;20033;-68
2021/12/16 04:46:13;;;;;;;29.92;15.52;;;5.90;98.30;;;;;;5020499;28;20034;-68
2021/12/16 04:48:41;;;;;;;30.63;15.52;;;5.80;98.50;;;;;;5021062;28;20057;-68
2021/12/16 04:51:08;;;;;;;31.60;16.02;;;5.90;98.40;;;;;;5020556;28;20030;-68
2021/12/16 04:53:34;;;;;;;33.55;16.45;;;5.90;98.40;;;;;;5021795;28;20091;-68
2021/12/16 04:56:00;;;;;;;31.23;16.75;;;5.90;98.30;;;;;;5021600;28;20096;-68
2021/12/16 04:58:26;;;;;;;32.03;14.68;;;6.00;98.10;;;;;;5020584;28;20026;-68
2021/12/16 05:00:52;;;;;;;31.10;15.97;;;5.90;98.10;;;;;;5022001;28;20220;-68
2021/12/16 05:03:18;;;;;;;30.65;16.40;;;5.90;98.20;;;;;;5021948;28;20092;-67
2021/12/16 05:05:44;;;;;;;30.88;15.52;;;5.80;98.10;;;;;;5021637;28;20017;-68
2021/12/16 05:08:10;;;;;;;30.13;14.70;;;5.90;98.10;;;;;;5020546;28;20316;-68
2021/12/16 05:10:36;;;;;;;31.23;16.57;;;5.80;98.00;;;;;;5021811;28;20025;-68
2021/12/16 05:13:04;;;;;;;30.07;15.37;;;5.80;97.90;;;;;;5020115;28;20113;-68
2021/12/16 05:15:33;;;;;;;34.05;16.00;;;5.80;98.00;;;;;;5021366;28;20022;-68
2021/12/16 05:18:01;;;;;;;34.03;16.55;;;5.70;98.00;;;;;;5021675;28;20048;-68
2021/12/16 05:20:34;;;;;;;34.08;17.10;;;5.70;98.30;;;;;;5021619;28;20022;-67
2021/12/16 05:28:31;;;;;;;30.58;15.55;;;5.60;98.50;;;;;;4982556;28;20065;-67
2021/12/16 05:30:57;;;;;;;34.10;15.73;;;5.70;98.50;;;;;;4982510;28;20305;-67
2021/12/16 05:33:24;;;;;;;33.08;17.15;;;5.70;98.30;;;;;;5001018;28;20104;-67
2021/12/16 05:35:50;;;;;;;;;;;5.70;98.20;;;;;;5009350;28;20030;-69
2021/12/16 05:38:16;;;;;;;32.50;15.07;;;5.70;98.40;;;;;;5005931;28;19912;-69
2021/12/16 05:40:42;;;;;;;32.17;16.33;;;5.70;98.40;;;;;;4999768;28;20027;-66
2021/12/16 05:43:11;;;;;;;37.90;17.08;;;5.70;98.50;;;;;;4986394;28;20030;-66
2021/12/16 05:45:37;;;;;;;34.70;15.70;;;5.70;98.40;;;;;;5001529;28;20022;-66
2021/12/16 05:48:05;;;;;;;35.60;17.37;;;5.70;98.70;;;;;;4987130;28;20041;-67
2021/12/16 05:50:33;;;;;;;35.35;16.60;;;5.80;98.80;;;;;;4985500;28;20033;-66
2021/12/16 05:52:59;;;;;;;32.65;14.75;;;5.80;98.40;;;;;;4985146;28;20022;-66
2021/12/16 05:55:26;;;;;;;34.50;17.27;;;5.80;98.40;;;;;;4985209;28;20027;-67
2021/12/16 05:57:52;;;;;;;34.35;15.50;;;5.80;98.40;;;;;;5010549;28;20028;-69
2021/12/16 06:00:32;;;;;;;32.13;16.17;;;5.80;98.40;;;;;;5024858;28;20022;-67
2021/12/16 06:02:58;;;;;;;34.42;15.55;;;5.90;98.20;;;;;;5023352;28;20045;-68
2021/12/16 06:05:24;;;;;;;31.50;15.40;;;5.90;98.20;;;;;;5007416;28;20045;-72
2021/12/16 06:07:50;;;;;;;31.40;15.70;;;5.80;98.20;;;;;;5017385;28;20265;-69
2021/12/16 06:13:02;;;;;;;31.83;15.75;;;5.90;98.00;;;;;;5024120;28;20032;-69
2021/12/16 06:28:55;;;;;;;33.55;16.33;;;5.90;97.70;;;;;;5024350;28;20049;-70
2021/12/16 06:31:21;;;;;;;31.93;16.10;;;5.90;97.60;;;;;;5024159;28;20030;-69
2021/12/16 06:33:47;;;;;;;30.15;14.68;;;5.90;97.60;;;;;;5023574;28;20084;-70
2021/12/16 06:36:13;;;;;;;35.65;17.65;;;5.90;97.80;;;;;;5023671;28;20022;-69
2021/12/16 06:38:39;;;;;;;33.92;17.08;;;5.80;98.00;;;;;;5020962;28;20026;-69
2021/12/16 06:41:05;;;;;;;31.20;15.27;;;5.90;97.90;;;;;;5004298;28;20252;-72
2021/12/16 06:43:32;;;;;;;35.58;16.10;;;5.80;97.90;;;;;;5002745;28;20014;-69
2021/12/16 06:46:01;;;;;;;33.80;16.55;;;5.90;98.00;;;;;;5002597;28;20037;-69
2021/12/16 06:48:31;;;;;;;33.47;15.75;;;5.90;98.00;;;;;;5004124;28;20113;-71
2021/12/16 06:51:02;;;;;;;32.28;15.65;;;5.90;97.80;;;;;;5004409;28;20022;-70
2021/12/16 06:53:44;;;;;;;32.60;15.50;;;5.90;97.80;;;;;;5002850;28;20291;-69
2021/12/16 06:56:17;;;;;;;33.80;15.73;;;5.90;97.80;;;;;;4988699;28;20053;-69
2021/12/16 06:58:50;;;;;;;30.60;14.63;;;5.90;97.90;;;;;;5012576;28;20022;-71
2021/12/16 07:04:18;;;;;;;29.90;15.70;;;5.90;97.80;;;;;;5010822;28;20069;-69
2021/12/16 07:06:44;;;;;;;34.00;17.10;;;5.90;97.70;;;;;;5023541;28;20033;-69
2021/12/16 07:09:16;;;;;;;31.52;15.60;;;5.90;97.70;;;;;;5023479;28;20025;-69
2021/12/16 07:11:44;;;;;;;31.80;16.33;;;5.90;97.70;;;;;;5022452;28;20028;-69
2021/12/16 07:14:14;;;;;;;31.77;15.57;;;5.80;97.60;;;;;;5023324;28;20029;-72
2021/12/16 07:16:41;;;;;;;34.92;16.45;;;5.80;97.80;;;;;;5023830;28;20014;-71
2021/12/16 07:19:07;;;;;;;30.98;15.50;;;5.80;97.80;;;;;;5025841;28;20030;-71
2021/12/16 07:21:37;;;;;;;40.88;17.38;;;5.80;98.00;;;;;;5022245;28;20052;-71
2021/12/16 07:24:09;;;;;;;33.47;15.07;;;5.70;98.30;;;;;;5022907;28;20097;-71
2021/12/16 07:26:35;;;;;;;33.22;15.90;;;5.70;98.00;;;;;;5022933;28;20509;-71
2021/12/16 07:29:01;;;;;;;35.93;17.60;;;5.70;97.90;;;;;;5023440;28;20034;-71
2021/12/16 07:31:28;;;;;;;32.80;16.03;;;5.80;98.00;;;;;;5023368;28;20064;-71
2021/12/16 07:33:54;;;;;;;32.17;15.20;;;5.80;97.90;;;;;;5021796;28;20225;-71
2021/12/16 07:36:21;;;;;;;32.80;17.38;;;5.70;98.00;;;;;;5022343;28;20018;-71
2021/12/16 07:38:47;;;;;;;31.33;15.02;;;5.70;98.30;;;;;;5023133;28;20048;-71
2021/12/16 07:41:16;;;;;;;32.25;16.13;;;5.70;98.20;;;;;;5023044;28;20025;-71
2021/12/16 07:46:27;;;;;;;31.55;15.63;;;5.80;98.10;;;;;;5022712;28;20079;-71
2021/12/16 07:48:53;;;;;;;31.33;14.60;;;5.80;98.20;;;;;;5022760;28;20076;-71
2021/12/16 07:51:19;;;;;;;36.75;15.63;;;5.80;98.10;;;;;;5021747;28;20037;-71
2021/12/16 07:53:44;;;;;;;32.40;14.43;;;5.80;98.00;;;;;;5022587;28;20041;-71
2021/12/16 07:56:10;;;;;;;28.05;14.38;;;5.70;98.00;;;;;;5022234;28;20022;-71
2021/12/16 07:58:36;;;;;;;31.75;15.70;;;5.80;98.10;;;;;;5021199;28;20017;-70
2021/12/16 08:01:03;;;;;;;32.53;16.07;;;5.80;98.10;;;;;;5022801;28;20044;-70
2021/12/16 08:03:34;;;;;;;31.58;14.40;;;5.90;97.80;;;;;;5022419;28;20025;-70
2021/12/16 08:06:05;;;;;;;32.08;16.15;;;5.90;97.80;;;;;;5022102;28;20050;-71
2021/12/16 08:08:31;;;;;;;29.42;14.23;;;5.80;97.90;;;;;;5021538;28;20048;-71
2021/12/16 08:10:58;;;;;;;35.80;18.45;;;5.80;97.90;;;;;;5020478;28;20037;-70
2021/12/16 08:13:24;;;;;;;34.35;16.40;;;5.80;97.90;;;;;;5021649;28;20018;-70
2021/12/16 08:15:52;;;;;;;28.67;14.98;;;5.80;98.00;;;;;;5021182;28;20028;-71
2021/12/16 08:18:18;;;;;;;31.45;15.20;;;5.80;97.90;;;;;;5022259;28;20252;-71
2021/12/16 08:20:44;;;;;;;31.07;16.23;;;5.90;98.00;;;;;;5022353;28;20076;-70
2021/12/16 08:23:10;;;;;;;36.40;17.90;;;5.90;97.50;;;;;;5022389;28;20097;-70
2021/12/16 08:25:37;;;;;;;38.40;17.25;;;6.00;97.50;;;;;;5020636;28;20036;-70
2021/12/16 08:28:03;;;;;;;38.05;17.40;;;6.00;97.50;;;;;;5022067;28;20100;-70
2021/12/16 08:30:32;;;;;;;38.90;17.05;;;6.00;97.40;;;;;;5021056;28;20026;-70
2021/12/16 08:32:59;;;;;;;33.25;16.45;;;6.00;97.60;;;;;;5021638;28;20026;-70
2021/12/16 08:35:25;;;;;;;35.20;17.88;;;6.10;97.50;;;;;;5002879;28;20064;-70
2021/12/16 08:37:51;;;;;;;28.40;14.43;;;6.10;97.40;;;;;;5022036;28;20026;-70
2021/12/16 08:40:20;;;;;;;33.17;17.67;;;6.20;97.20;;;;;;5022042;28;20346;-70
2021/12/16 08:42:46;;;;;;;31.20;16.30;;;6.20;97.00;;;;;;5021881;28;20029;-70
2021/12/16 08:45:16;;;;;;;31.33;16.40;;;6.20;97.00;;;;;;5021416;28;20319;-70
2021/12/16 08:47:42;;;;;;;31.00;14.48;;;6.20;97.10;;;;;;5021973;28;20025;-70
2021/12/16 08:50:08;;;;;;;33.53;16.07;;;6.30;96.80;;;;;;5021848;28;20301;-70
2021/12/16 08:52:34;;;;;;;;;;;6.30;96.70;;;;;;5022267;28;20033;-66
2021/12/16 08:55:00;;;;;;;30.25;14.82;;;6.30;96.90;;;;;;5021304;28;19992;-65
2021/12/16 08:57:27;;;;;;;30.90;16.10;;;6.40;96.80;;;;;;5021644;28;20045;-65
2021/12/16 08:59:53;;;;;;;27.88;14.32;;;6.40;96.60;;;;;;5020782;28;20024;-65
2021/12/16 09:02:20;;;;;;;29.37;14.87;;;6.40;96.60;;;;;;5021468;28;20033;-65
2021/12/16 09:04:46;;;;;;;31.05;14.40;;;6.40;96.60;;;;;;5021238;28;20044;-66
2021/12/16 09:07:12;;;;;;;37.67;17.63;;;6.40;96.60;;;;;;5021509;28;20034;-65
2021/12/16 09:09:39;;;;;;;33.28;16.80;;;6.40;96.70;;;;;;5021762;28;20029;-66
2021/12/16 09:12:48;;;;;;;;;;;6.40;96.60;;;;;;5004593;28;20017;-65
2021/12/16 09:15:07;;;;;;;34.47;16.52;;;6.30;96.60;;;;;;5020635;28;19910;-66
2021/12/16 09:17:33;;;;;;;31.90;15.77;;;6.40;96.60;;;;;;5020427;28;20205;-66
2021/12/16 09:19:59;;;;;;;33.77;16.60;;;6.40;96.60;;;;;;5021596;28;20041;-66
2021/12/16 09:22:25;;;;;;;35.08;17.75;;;6.40;96.60;;;;;;5021342;28;20040;-65
2021/12/16 09:24:52;;;;;;;36.80;17.25;;;6.40;96.60;;;;;;5020993;28;20089;-66
2021/12/16 09:27:18;;;;;;;31.73;15.57;;;6.40;96.70;;;;;;5021313;28;20038;-66
2021/12/16 09:29:44;;;;;;;30.92;14.98;;;6.40;96.50;;;;;;5021235;28;20088;-66
2021/12/16 09:32:10;;;;;;;30.48;15.20;;;6.40;96.60;;;;;;5021148;28;20025;-66
2021/12/16 09:34:37;;;;;;;30.10;14.35;;;6.40;96.60;;;;;;5020860;28;20060;-65
2021/12/16 09:37:03;;;;;;;;;;;6.50;96.50;;;;;;5021575;28;20328;-65
2021/12/16 09:39:28;;;;;;;30.17;13.73;;;6.50;96.30;;;;;;5021303;28;19905;-65
2021/12/16 09:41:57;;;;;;;31.13;15.73;;;6.50;96.40;;;;;;5020257;28;20576;-65
2021/12/16 09:44:23;;;;;;;34.92;17.35;;;6.50;96.70;;;;;;5019547;28;20311;-65
2021/12/16 09:46:50;;;;;;;33.17;15.63;;;6.50;96.80;;;;;;5021029;28;20018;-65
2021/12/16 09:49:17;;;;;;;31.98;16.83;;;6.50;96.90;;;;;;5021165;28;20080;-66
2021/12/16 09:51:43;;;;;;;34.00;16.05;;;6.60;96.90;;;;;;5020640;28;20025;-65
2021/12/16 09:54:15;;;;;;;37.23;17.73;;;6.60;96.90;;;;;;5019501;28;20340;-65
2021/12/16 09:56:43;;;;;;;31.65;15.57;;;6.60;96.70;;;;;;5020798;28;20018;-65
2021/12/16 09:59:12;;;;;;;32.42;16.77;;;6.70;96.50;;;;;;5019758;28;20030;-65
2021/12/16 10:01:38;;;;;;;32.45;16.17;;;6.70;96.60;;;;;;5019839;28;20024;-65
2021/12/16 10:04:06;;;;;;;35.73;17.80;;;6.70;96.50;;;;;;5020744;28;20029;-66
2021/12/16 10:06:34;;;;;;;34.92;16.45;;;6.80;96.50;;;;;;5020640;28;20224;-66
2021/12/16 10:09:03;;;;;;;35.17;17.63;;;6.80;96.20;;;;;;5019969;28;20018;-66
2021/12/16 10:11:29;;;;;;;38.00;16.50;;;6.80;96.40;;;;;;5020990;28;20209;-65
2021/12/16 10:19:13;;;;;;;34.97;16.98;;;6.80;96.20;;;;;;5052649;28;20015;-73
2021/12/16 10:21:41;;;;;;;34.50;16.83;;;6.80;96.20;;;;;;5047505;28;20021;-73
2021/12/16 10:24:25;;;;;;;35.78;16.23;;;6.80;96.00;;;;;;5064391;28;20021;-72
2021/12/16 10:27:09;;;;;;;32.67;15.48;;;6.80;96.20;;;;;;5064318;28;20219;-72
2021/12/16 10:29:56;;;;;;;35.00;15.48;;;6.80;96.20;;;;;;5065538;28;20067;-66
2021/12/16 10:32:30;;;;;;;34.60;16.25;;;6.80;96.40;;;;;;5065090;28;20119;-65
2021/12/16 10:35:03;;;;;;;33.15;16.08;;;7.00;96.10;;;;;;5064761;28;20227;-72
2021/12/16 10:37:36;;;;;;;35.00;16.75;;;7.10;95.90;;;;;;5063895;28;20017;-74
2021/12/16 10:40:35;;;;;;;35.60;16.50;;;7.10;95.80;;;;;;5063887;28;20021;-73
2021/12/16 10:43:08;;;;;;;;;;;7.10;95.60;;;;;;5065346;28;20342;-72
2021/12/16 10:45:45;;;;;;;39.25;16.48;;;7.20;95.30;;;;;;5063071;28;20143;-73
2021/12/16 10:48:33;;;;;;;35.78;16.70;;;7.00;95.30;;;;;;5044749;28;20017;-73
2021/12/16 10:51:13;;;;;;;37.17;16.48;;;6.90;95.70;;;;;;5011179;28;20028;-76
2021/12/16 10:54:02;;;;;;;38.00;17.55;;;6.90;96.00;;;;;;5043973;28;20021;-75
2021/12/16 10:56:35;;;;;;;42.42;19.85;;;6.90;96.20;;;;;;5043580;28;20017;-76
2021/12/16 10:59:16;;;;;;;32.97;16.42;;;6.90;96.20;;;;;;5044570;28;20025;-75
2021/12/16 11:02:24;;;;;;;39.33;17.27;;;7.10;95.70;;;;;;5043196;28;20075;-75
2021/12/16 11:04:56;;;;;;;41.75;17.55;;;7.10;95.40;;;;;;5044271;28;20017;-76
2021/12/16 11:07:36;;;;;;;39.08;18.40;;;7.20;95.30;;;;;;5044481;28;20022;-75
2021/12/16 11:10:15;;;;;;;39.70;18.05;;;7.30;95.20;;;;;;5027279;28;20082;-75
2021/12/16 11:12:57;;;;;;;39.83;18.02;;;7.40;95.40;;;;;;5044723;28;20084;-75
2021/12/16 11:15:53;;;;;;;39.58;17.77;;;7.50;95.00;;;;;;5043917;28;20029;-76
2021/12/16 11:18:24;;;;;;;36.75;17.10;;;7.60;94.70;;;;;;5042353;28;20025;-76
2021/12/16 11:20:56;;;;;;;35.65;17.70;;;7.70;94.20;;;;;;5043270;28;20096;-75
2021/12/16 11:23:33;;;;;;;39.53;17.75;;;8.00;94.10;;;;;;5042655;28;20021;-75
2021/12/16 11:26:06;;;;;;;38.00;18.65;;;8.30;93.40;;;;;;5042708;28;20101;-75
2021/12/16 11:28:45;;;;;;;37.42;18.42;;;8.40;93.00;;;;;;5043132;28;20119;-76
2021/12/16 11:31:32;;;;;;;38.72;17.13;;;8.40;93.00;;;;;;5042295;28;20120;-75
2021/12/16 11:34:04;;;;;;;35.55;17.48;;;8.30;93.00;;;;;;5028913;28;20029;-75
2021/12/16 11:36:35;;;;;;;34.50;17.25;;;8.20;93.10;;;;;;5026404;28;20089;-75
2021/12/16 11:39:06;;;;;;;38.28;16.52;;;8.10;93.20;;;;;;5043977;28;20420;-74
2021/12/16 11:42:00;;;;;;;33.10;14.90;;;8.20;93.10;;;;;;5043025;28;20270;-75
2021/12/16 11:44:38;;;;;;;36.10;16.98;;;8.30;92.90;;;;;;5042049;28;20063;-75
2021/12/16 11:47:15;;;;;;;36.80;16.55;;;8.20;92.60;;;;;;5043749;28;20092;-75
2021/12/16 11:50:04;;;;;;;;;;;8.30;92.40;;;;;;5042737;28;20290;-75
2021/12/16 11:52:36;;;;;;;34.67;14.95;;;8.20;92.60;;;;;;5043951;28;19951;-76
2021/12/16 11:55:12;;;;;;;36.28;16.67;;;8.10;93.10;;;;;;5025891;28;20263;-74
2021/12/16 11:57:51;;;;;;;35.35;16.65;;;8.00;93.20;;;;;;5043783;28;20048;-74
2021/12/16 12:00:27;;;;;;;36.90;17.90;;;8.00;93.40;;;;;;5042524;28;20380;-74
2021/12/16 12:03:13;;;;;;;40.28;16.10;;;8.00;93.50;;;;;;5026967;28;20029;-74
2021/12/16 12:05:47;;;;;;;36.40;15.93;;;8.00;93.50;;;;;;5025459;28;20037;-73
2021/12/16 12:08:26;;;;;;;35.88;17.20;;;8.10;93.70;;;;;;5042317;28;20212;-74
2021/12/16 12:11:01;;;;;;;32.53;15.38;;;8.30;93.10;;;;;;5025841;28;20079;-74
2021/12/16 12:13:28;;;;;;;37.20;18.55;;;8.50;92.90;;;;;;5042434;28;20062;-74
2021/12/16 12:16:10;;;;;;;;;;;8.50;92.60;;;;;;5025608;28;20025;-73
2021/12/16 12:18:52;;;;;;;31.02;14.65;;;8.50;92.60;;;;;;5043019;28;19909;-74
2021/12/16 12:21:31;;;;;;;34.53;15.13;;;8.50;92.30;;;;;;5058194;28;20096;-74
2021/12/16 12:24:20;;;;;;;31.92;16.35;;;8.50;92.40;;;;;;5041654;28;20048;-73
2021/12/16 12:26:57;;;;;;;34.42;16.20;;;8.50;92.40;;;;;;5042093;28;20088;-74
2021/12/16 12:29:28;;;;;;;36.47;16.13;;;8.40;92.30;;;;;;5041627;28;20080;-74
2021/12/16 12:32:12;;;;;;;30.40;15.50;;;8.50;92.30;;;;;;5042936;28;20089;-74
2021/12/16 12:34:40;;;;;;;31.88;15.48;;;8.60;92.10;;;;;;5041373;28;20029;-75
2021/12/16 12:37:10;;;;;;;32.45;15.75;;;8.70;91.80;;;;;;5021233;28;20029;-74
2021/12/16 12:39:43;;;;;;;31.15;16.65;;;8.70;91.80;;;;;;5024625;28;20026;-74
2021/12/16 12:42:10;;;;;;;32.45;16.55;;;8.80;91.80;;;;;;5034543;28;20128;-73
2021/12/16 12:44:36;;;;;;;31.77;16.67;;;8.80;91.70;;;;;;5030475;28;20017;-73
2021/12/16 12:47:05;;;;;;;41.87;15.80;;;8.70;92.00;;;;;;5032247;28;20347;-74
2021/12/16 12:49:31;;;;;;;38.95;19.83;;;8.80;92.00;;;;;;5032361;28;20064;-75
2021/12/16 12:52:15;;;;;;;32.57;16.13;;;8.90;92.00;;;;;;5031024;28;20092;-74
2021/12/16 12:54:44;;;;;;;31.90;15.75;;;8.90;91.40;;;;;;5056637;28;20028;-75
2021/12/16 12:57:27;;;;;;;30.50;13.85;;;9.10;91.70;;;;;;5025282;28;20028;-75
2021/12/16 12:59:53;;;;;;;30.02;14.60;;;9.20;91.40;;;;;;5025961;28;20081;-74
2021/12/16 13:02:32;;;;;;;30.38;15.23;;;9.30;91.00;;;;;;5041689;28;20017;-74
2021/12/16 13:05:18;;;;;;;33.10;15.25;;;9.40;90.10;;;;;;5041134;28;20021;-74
2021/12/16 13:08:00;;;;;;;27.98;13.32;;;9.30;90.40;;;;;;5024655;28;20025;-74
2021/12/16 13:10:38;;;;;;;27.15;13.63;;;9.30;90.40;;;;;;5041097;28;20216;-74
2021/12/16 13:15:56;;;;;;;29.63;14.27;;;9.30;90.50;;;;;;5040882;28;20030;-74
2021/12/16 13:26:59;;;;;;;29.20;15.05;;;8.70;91.70;;;;;;5029090;28;20021;-75
2021/12/16 13:35:11;;;;;;;29.58;15.52;;;8.70;92.20;;;;;;5042552;28;20140;-73
2021/12/16 13:37:43;;;;;;;30.38;13.93;;;8.70;92.10;;;;;;5027153;28;20308;-73
2021/12/16 13:40:29;;;;;;;32.15;15.38;;;8.70;91.90;;;;;;5041383;28;20018;-73
2021/12/16 13:43:10;;;;;;;31.33;15.75;;;8.60;92.10;;;;;;5041791;28;20085;-74
2021/12/16 13:45:48;;;;;;;26.65;14.27;;;8.60;92.30;;;;;;5040637;28;20047;-75
2021/12/16 13:58:08;;;;;;;32.30;14.40;;;8.60;92.40;;;;;;5041088;28;20034;-74
2021/12/16 14:03:07;;;;;;;29.92;14.95;;;8.40;92.90;;;;;;5045197;28;20036;-74
2021/12/16 14:06:10;;;;;;;30.13;15.73;;;8.50;92.90;;;;;;5044359;28;20021;-74
2021/12/16 14:08:40;;;;;;;29.73;14.40;;;8.50;93.00;;;;;;5060832;28;20033;-73
2021/12/16 14:14:24;;;;;;;31.80;14.88;;;8.40;92.90;;;;;;5044650;28;20024;-75
2021/12/16 14:25:28;;;;;;;31.00;15.63;;;8.30;93.00;;;;;;5024143;28;20032;-74
2021/12/16 14:39:05;;;;;;;28.92;14.88;;;8.00;93.80;;;;;;5028477;28;20021;-75
2021/12/16 14:47:00;;;;;;;32.15;16.95;;;8.00;94.00;;;;;;5043821;28;20013;-74
2021/12/16 14:49:33;;;;;;;31.65;16.45;;;7.90;94.20;;;;;;5044224;28;20052;-74
2021/12/16 14:51:59;;;;;;;34.33;16.90;;;7.90;94.30;;;;;;5027599;28;20029;-74
2021/12/16 14:54:27;;;;;;;32.88;15.73;;;7.90;94.50;;;;;;5043454;28;20033;-74
2021/12/16 14:56:57;;;;;;;;;;;7.80;94.40;;;;;;5027671;28;20028;-75
2021/12/16 14:59:23;;;;;;;29.35;14.48;;;7.80;94.50;;;;;;5044972;28;19912;-74
2021/12/16 15:01:52;;;;;;;33.73;16.63;;;7.80;94.60;;;;;;5027029;28;20029;-74
2021/12/16 15:04:23;;;;;;;33.58;16.42;;;7.80;94.60;;;;;;5042635;28;20275;-74
2021/12/16 15:06:57;;;;;;;32.40;14.90;;;7.70;94.60;;;;;;5043929;28;20216;-75
2021/12/16 15:09:28;;;;;;;36.15;15.90;;;7.70;94.50;;;;;;5043787;28;20063;-75
2021/12/16 15:12:12;;;;;;;32.45;16.67;;;7.70;94.70;;;;;;5044436;28;20220;-75
2021/12/16 15:31:41;;;;;;;36.45;17.88;;;7.70;95.00;;;;;;5026843;28;20013;-75
2021/12/16 15:35:48;;;;;;;35.40;17.65;;;7.60;95.50;;;;;;5028922;28;20033;-74
2021/12/16 15:45:23;;;;;;;32.17;16.17;;;7.50;95.70;;;;;;5037466;28;20021;-74
2021/12/16 15:48:14;;;;;;;32.47;16.35;;;7.50;95.70;;;;;;5024183;28;20049;-75
2021/12/16 15:51:05;;;;;;;33.17;17.17;;;7.50;95.70;;;;;;5038985;28;20026;-75
2021/12/16 15:53:35;;;;;;;28.77;16.08;;;7.50;95.70;;;;;;5024087;28;20049;-75
2021/12/16 15:56:07;;;;;;;36.97;17.23;;;7.50;95.70;;;;;;5023789;28;20041;-74
2021/12/16 15:58:42;;;;;;;32.13;15.77;;;7.50;95.70;;;;;;5022656;28;20021;-75
2021/12/16 16:01:34;;;;;;;32.05;16.20;;;7.50;96.00;;;;;;5022922;28;20025;-75
2021/12/16 16:04:06;;;;;;;29.77;14.90;;;7.50;95.80;;;;;;5041911;28;20185;-74
2021/12/16 16:06:32;;;;;;;34.25;16.08;;;7.50;95.80;;;;;;5026476;28;20025;-74
2021/12/16 16:09:03;;;;;;;31.43;16.50;;;7.50;95.80;;;;;;5043672;28;20025;-74
2021/12/16 16:11:32;;;;;;;31.65;15.85;;;7.50;95.70;;;;;;5042973;28;20056;-74
2021/12/16 16:14:03;;;;;;;35.45;16.48;;;7.50;95.70;;;;;;5042375;28;20048;-75
2021/12/16 16:16:36;;;;;;;37.08;17.70;;;7.50;95.70;;;;;;5051682;23;20169;-66
2021/12/16 16:19:03;;;;;;;34.95;16.25;;;7.50;95.80;;;;;;5011068;28;20028;-66
2021/12/16 16:21:39;;;;;;;34.75;17.17;;;7.40;95.80;;;;;;5002803;28;20130;-66
2021/12/16 16:24:13;;;;;;;34.35;16.08;;;7.40;95.60;;;;;;5002862;28;20030;-66
2021/12/16 16:26:40;;;;;;;31.88;17.10;;;7.40;95.70;;;;;;5002806;28;20030;-66
2021/12/16 16:29:10;;;;;;;33.58;16.70;;;7.40;95.70;;;;;;5001665;28;20026;-68
2021/12/16 16:31:36;;;;;;;35.88;17.02;;;7.40;95.70;;;;;;5002029;28;20053;-66
2021/12/16 16:34:12;;;;;;;32.03;15.80;;;7.40;95.80;;;;;;5002668;28;20033;-69
2021/12/16 16:36:49;;;;;;;33.42;16.48;;;7.40;95.80;;;;;;5002599;28;20076;-69
2021/12/16 16:39:17;;;;;;;36.78;17.73;;;7.40;95.80;;;;;;5002674;28;20053;-69
2021/12/16 16:41:55;;;;;;;37.60;17.48;;;7.40;95.70;;;;;;5002048;28;20026;-69
2021/12/16 16:44:23;;;;;;;36.50;17.67;;;7.40;95.80;;;;;;5002492;28;20312;-70
2021/12/16 16:47:09;;;;;;;34.15;16.15;;;7.40;95.90;;;;;;5002210;28;20054;-69
2021/12/16 16:49:50;;;;;;;33.88;17.33;;;7.40;95.90;;;;;;5002264;28;20085;-69
2021/12/16 16:52:41;;;;;;;33.70;17.10;;;7.50;96.10;;;;;;5002726;28;20097;-69
2021/12/16 16:55:18;;;;;;;30.17;15.07;;;7.50;96.10;;;;;;5002199;28;20333;-69
2021/12/16 16:57:51;;;;;;;33.72;16.10;;;7.40;95.90;;;;;;5003101;28;20026;-69
2021/12/16 17:00:27;;;;;;;31.85;15.57;;;7.50;95.80;;;;;;5002192;28;20030;-69
2021/12/16 17:03:06;;;;;;;30.90;17.17;;;7.40;95.90;;;;;;5000104;28;20046;-69
2021/12/16 17:05:39;;;;;;;38.20;16.70;;;7.40;96.00;;;;;;4982565;28;20102;-68
2021/12/16 17:08:14;;;;;;;36.67;17.73;;;7.40;96.10;;;;;;4982157;28;20317;-68